sensor_id;sensor_type;location;lat;lon;timestamp;temperature;humidity
7472;DHT22;3777;48.722;8.110;2023-08-31T00:02:20;15.80;99.90
7472;DHT22;3777;48.722;8.110;2023-08-31T00:04:47;15.80;99.90
7472;DHT22;3777;48.722;8.110;2023-08-31T00:07:14;15.80;99.90
7472;DHT22;3777;48.722;8.110;2023-08-31T00:09:41;15.80;99.90
7472;DHT22;3777;48.722;8.110;2023-08-31T00:12:08;15.80;99.90
7472;DHT22;3777;48.722;8.110;2023-08-31T00:14:36;15.80;99.90
7472;DHT22;3777;48.722;8.110;2023-08-31T00:17:04;15.80;99.90
7472;DHT22;3777;48.722;8.110;2023-08-31T00:19:30;15.80;99.90
7472;DHT22;3777;48.722;8.110;2023-08-31T00:21:57;15.80;99.90
7472;DHT22;3777;48.722;8.110;2023-08-31T00:24:24;15.70;99.90
7472;DHT22;3777;48.722;8.110;2023-08-31T00:26:55;15.70;99.90
7472;DHT22;3777;48.722;8.110;2023-08-31T00:29:22;15.60;99.90
7472;DHT22;3777;48.722;8.110;2023-08-31T00:31:50;15.60;99.90
7472;DHT22;3777;48.722;8.110;2023-08-31T00:34:18;15.50;99.90
7472;DHT22;3777;48.722;8.110;2023-08-31T00:36:45;15.50;99.90
7472;DHT22;3777;48.722;8.110;2023-08-31T00:39:12;15.40;99.90
7472;DHT22;3777;48.722;8.110;2023-08-31T00:41:39;15.40;99.90
7472;DHT22;3777;48.722;8.110;2023-08-31T00:44:06;15.30;99.90
7472;DHT22;3777;48.722;8.110;2023-08-31T00:46:33;15.30;99.90
7472;DHT22;3777;48.722;8.110;2023-08-31T00:49:03;15.30;99.90
7472;DHT22;3777;48.722;8.110;2023-08-31T00:51:30;15.20;99.90
7472;DHT22;3777;48.722;8.110;2023-08-31T00:53:58;15.10;99.90
7472;DHT22;3777;48.722;8.110;2023-08-31T00:56:25;15.10;99.90
7472;DHT22;3777;48.722;8.110;2023-08-31T00:58:52;15.10;99.90
7472;DHT22;3777;48.722;8.110;2023-08-31T01:01:25;15.10;99.90
7472;DHT22;3777;48.722;8.110;2023-08-31T01:03:57;15.20;99.90
7472;DHT22;3777;48.722;8.110;2023-08-31T01:06:35;15.20;99.90
7472;DHT22;3777;48.722;8.110;2023-08-31T01:09:19;15.30;99.90
7472;DHT22;3777;48.722;8.110;2023-08-31T01:12:02;15.30;99.90
7472;DHT22;3777;48.722;8.110;2023-08-31T01:14:33;15.40;99.90
7472;DHT22;3777;48.722;8.110;2023-08-31T01:17:02;15.50;99.90
7472;DHT22;3777;48.722;8.110;2023-08-31T01:19:43;15.60;99.90
7472;DHT22;3777;48.722;8.110;2023-08-31T01:22:16;15.60;99.90
7472;DHT22;3777;48.722;8.110;2023-08-31T01:24:46;15.70;99.90
7472;DHT22;3777;48.722;8.110;2023-08-31T01:27:13;15.70;99.90
7472;DHT22;3777;48.722;8.110;2023-08-31T01:29:40;15.80;99.90
7472;DHT22;3777;48.722;8.110;2023-08-31T01:32:07;15.80;99.90
7472;DHT22;3777;48.722;8.110;2023-08-31T01:34:35;15.80;99.90
7472;DHT22;3777;48.722;8.110;2023-08-31T01:37:07;15.90;99.90
7472;DHT22;3777;48.722;8.110;2023-08-31T01:39:39;15.90;99.90
7472;DHT22;3777;48.722;8.110;2023-08-31T01:42:11;15.90;99.90
7472;DHT22;3777;48.722;8.110;2023-08-31T01:44:40;15.90;99.90
7472;DHT22;3777;48.722;8.110;2023-08-31T01:47:07;16.00;99.90
7472;DHT22;3777;48.722;8.110;2023-08-31T01:49:37;16.00;99.90
7472;DHT22;3777;48.722;8.110;2023-08-31T01:52:05;16.00;99.90
7472;DHT22;3777;48.722;8.110;2023-08-31T01:54:32;16.10;99.90
7472;DHT22;3777;48.722;8.110;2023-08-31T01:56:59;16.00;99.90
7472;DHT22;3777;48.722;8.110;2023-08-31T01:59:29;16.10;99.90
7472;DHT22;3777;48.722;8.110;2023-08-31T02:01:56;16.10;99.90
7472;DHT22;3777;48.722;8.110;2023-08-31T02:04:23;16.10;99.90
7472;DHT22;3777;48.722;8.110;2023-08-31T02:06:50;16.10;99.90
7472;DHT22;3777;48.722;8.110;2023-08-31T02:09:17;16.10;99.90
7472;DHT22;3777;48.722;8.110;2023-08-31T02:11:44;16.10;99.90
7472;DHT22;3777;48.722;8.110;2023-08-31T02:14:10;16.10;99.90
7472;DHT22;3777;48.722;8.110;2023-08-31T02:16:38;16.10;99.90
7472;DHT22;3777;48.722;8.110;2023-08-31T02:19:05;16.10;99.90
7472;DHT22;3777;48.722;8.110;2023-08-31T02:21:32;16.20;99.90
7472;DHT22;3777;48.722;8.110;2023-08-31T02:23:59;16.20;99.90
7472;DHT22;3777;48.722;8.110;2023-08-31T02:26:25;16.20;99.90
7472;DHT22;3777;48.722;8.110;2023-08-31T02:28:52;16.20;99.90
7472;DHT22;3777;48.722;8.110;2023-08-31T02:31:19;16.20;99.90
7472;DHT22;3777;48.722;8.110;2023-08-31T02:33:47;16.20;99.90
7472;DHT22;3777;48.722;8.110;2023-08-31T02:36:15;16.20;99.90
7472;DHT22;3777;48.722;8.110;2023-08-31T02:38:42;16.20;99.90
7472;DHT22;3777;48.722;8.110;2023-08-31T02:41:08;16.20;99.90
7472;DHT22;3777;48.722;8.110;2023-08-31T02:43:35;16.20;99.90
7472;DHT22;3777;48.722;8.110;2023-08-31T02:46:03;16.20;99.90
7472;DHT22;3777;48.722;8.110;2023-08-31T02:48:31;16.20;99.90
7472;DHT22;3777;48.722;8.110;2023-08-31T02:51:00;16.20;99.90
7472;DHT22;3777;48.722;8.110;2023-08-31T02:53:28;16.20;99.90
7472;DHT22;3777;48.722;8.110;2023-08-31T02:55:55;16.20;99.90
7472;DHT22;3777;48.722;8.110;2023-08-31T02:58:22;16.10;99.90
7472;DHT22;3777;48.722;8.110;2023-08-31T03:00:49;16.20;99.90
7472;DHT22;3777;48.722;8.110;2023-08-31T03:03:16;16.20;99.90
7472;DHT22;3777;48.722;8.110;2023-08-31T03:05:43;16.20;99.90
7472;DHT22;3777;48.722;8.110;2023-08-31T03:08:11;16.20;99.90
7472;DHT22;3777;48.722;8.110;2023-08-31T03:10:38;16.20;99.90
7472;DHT22;3777;48.722;8.110;2023-08-31T03:13:05;16.20;99.90
7472;DHT22;3777;48.722;8.110;2023-08-31T03:15:33;16.20;99.90
7472;DHT22;3777;48.722;8.110;2023-08-31T03:18:00;16.20;99.90
7472;DHT22;3777;48.722;8.110;2023-08-31T03:20:27;16.20;99.90
7472;DHT22;3777;48.722;8.110;2023-08-31T03:22:54;16.00;99.90
7472;DHT22;3777;48.722;8.110;2023-08-31T03:25:22;16.00;99.90
7472;DHT22;3777;48.722;8.110;2023-08-31T03:27:49;16.10;99.90
7472;DHT22;3777;48.722;8.110;2023-08-31T03:30:16;16.10;99.90
7472;DHT22;3777;48.722;8.110;2023-08-31T03:32:43;16.10;99.90
7472;DHT22;3777;48.722;8.110;2023-08-31T03:35:10;16.10;99.90
7472;DHT22;3777;48.722;8.110;2023-08-31T03:37:37;16.10;99.90
7472;DHT22;3777;48.722;8.110;2023-08-31T03:40:04;16.00;99.90
7472;DHT22;3777;48.722;8.110;2023-08-31T03:42:33;16.10;99.90
7472;DHT22;3777;48.722;8.110;2023-08-31T03:45:00;16.10;99.90
7472;DHT22;3777;48.722;8.110;2023-08-31T03:47:28;16.00;99.90
7472;DHT22;3777;48.722;8.110;2023-08-31T03:49:55;15.90;99.90
7472;DHT22;3777;48.722;8.110;2023-08-31T03:52:22;15.90;99.90
7472;DHT22;3777;48.722;8.110;2023-08-31T03:54:50;15.70;99.90
7472;DHT22;3777;48.722;8.110;2023-08-31T03:57:17;15.80;99.90
7472;DHT22;3777;48.722;8.110;2023-08-31T03:59:45;15.80;99.90
7472;DHT22;3777;48.722;8.110;2023-08-31T04:02:12;15.90;99.90
7472;DHT22;3777;48.722;8.110;2023-08-31T04:04:40;15.90;99.90
7472;DHT22;3777;48.722;8.110;2023-08-31T04:07:06;15.80;99.90
7472;DHT22;3777;48.722;8.110;2023-08-31T04:09:33;15.80;99.90
7472;DHT22;3777;48.722;8.110;2023-08-31T04:12:00;15.80;99.90
7472;DHT22;3777;48.722;8.110;2023-08-31T04:14:27;15.80;99.90
7472;DHT22;3777;48.722;8.110;2023-08-31T04:16:55;15.80;99.90
7472;DHT22;3777;48.722;8.110;2023-08-31T04:19:22;15.80;99.90
7472;DHT22;3777;48.722;8.110;2023-08-31T04:21:49;15.90;99.90
7472;DHT22;3777;48.722;8.110;2023-08-31T04:24:16;15.90;99.90
7472;DHT22;3777;48.722;8.110;2023-08-31T04:26:43;16.00;99.90
7472;DHT22;3777;48.722;8.110;2023-08-31T04:29:10;16.00;99.90
7472;DHT22;3777;48.722;8.110;2023-08-31T04:31:37;16.00;99.90
7472;DHT22;3777;48.722;8.110;2023-08-31T04:34:06;16.00;99.90
7472;DHT22;3777;48.722;8.110;2023-08-31T04:36:32;16.10;99.90
7472;DHT22;3777;48.722;8.110;2023-08-31T04:38:58;16.10;99.90
7472;DHT22;3777;48.722;8.110;2023-08-31T04:41:25;16.10;99.90
7472;DHT22;3777;48.722;8.110;2023-08-31T04:43:52;16.10;99.90
7472;DHT22;3777;48.722;8.110;2023-08-31T04:46:18;16.10;99.90
7472;DHT22;3777;48.722;8.110;2023-08-31T04:48:45;16.10;99.90
7472;DHT22;3777;48.722;8.110;2023-08-31T04:54:06;16.10;99.90
7472;DHT22;3777;48.722;8.110;2023-08-31T04:56:33;16.10;99.90
7472;DHT22;3777;48.722;8.110;2023-08-31T04:59:01;16.10;99.90
7472;DHT22;3777;48.722;8.110;2023-08-31T05:01:28;16.20;99.90
7472;DHT22;3777;48.722;8.110;2023-08-31T05:03:55;16.20;99.90
7472;DHT22;3777;48.722;8.110;2023-08-31T05:06:23;16.20;99.90
7472;DHT22;3777;48.722;8.110;2023-08-31T05:08:50;16.20;99.90
7472;DHT22;3777;48.722;8.110;2023-08-31T05:11:18;16.20;99.90
7472;DHT22;3777;48.722;8.110;2023-08-31T05:13:45;16.20;99.90
7472;DHT22;3777;48.722;8.110;2023-08-31T05:16:12;16.30;99.90
7472;DHT22;3777;48.722;8.110;2023-08-31T05:18:39;16.20;99.90
7472;DHT22;3777;48.722;8.110;2023-08-31T05:21:06;16.30;99.90
7472;DHT22;3777;48.722;8.110;2023-08-31T05:23:33;16.30;99.90
7472;DHT22;3777;48.722;8.110;2023-08-31T05:26:00;16.40;99.90
7472;DHT22;3777;48.722;8.110;2023-08-31T05:28:29;16.40;99.90
7472;DHT22;3777;48.722;8.110;2023-08-31T05:30:57;16.40;99.90
7472;DHT22;3777;48.722;8.110;2023-08-31T05:33:24;16.40;99.90
7472;DHT22;3777;48.722;8.110;2023-08-31T05:35:54;16.40;99.90
7472;DHT22;3777;48.722;8.110;2023-08-31T05:38:21;16.50;99.90
7472;DHT22;3777;48.722;8.110;2023-08-31T05:40:49;16.50;99.90
7472;DHT22;3777;48.722;8.110;2023-08-31T05:43:16;16.50;99.90
7472;DHT22;3777;48.722;8.110;2023-08-31T05:45:44;16.50;99.90
7472;DHT22;3777;48.722;8.110;2023-08-31T05:48:12;16.50;99.90
7472;DHT22;3777;48.722;8.110;2023-08-31T05:50:39;16.50;99.90
7472;DHT22;3777;48.722;8.110;2023-08-31T05:53:08;16.30;99.90
7472;DHT22;3777;48.722;8.110;2023-08-31T05:55:36;16.20;99.90
7472;DHT22;3777;48.722;8.110;2023-08-31T05:58:03;16.30;99.90
7472;DHT22;3777;48.722;8.110;2023-08-31T06:00:30;16.40;99.90
7472;DHT22;3777;48.722;8.110;2023-08-31T06:02:59;16.30;99.90
7472;DHT22;3777;48.722;8.110;2023-08-31T06:05:25;16.40;99.90
7472;DHT22;3777;48.722;8.110;2023-08-31T06:07:53;16.50;99.90
7472;DHT22;3777;48.722;8.110;2023-08-31T06:10:20;16.40;99.90
7472;DHT22;3777;48.722;8.110;2023-08-31T06:12:48;16.40;99.90
7472;DHT22;3777;48.722;8.110;2023-08-31T06:15:16;16.50;99.90
7472;DHT22;3777;48.722;8.110;2023-08-31T06:17:43;16.70;99.90
7472;DHT22;3777;48.722;8.110;2023-08-31T06:20:12;16.70;99.90
7472;DHT22;3777;48.722;8.110;2023-08-31T06:22:39;16.70;99.90
7472;DHT22;3777;48.722;8.110;2023-08-31T06:25:06;16.80;99.90
7472;DHT22;3777;48.722;8.110;2023-08-31T06:27:33;16.90;99.90
7472;DHT22;3777;48.722;8.110;2023-08-31T06:30:01;16.90;99.90
7472;DHT22;3777;48.722;8.110;2023-08-31T06:32:28;17.10;99.90
7472;DHT22;3777;48.722;8.110;2023-08-31T06:34:55;17.20;99.90
7472;DHT22;3777;48.722;8.110;2023-08-31T06:37:23;17.20;99.90
7472;DHT22;3777;48.722;8.110;2023-08-31T06:39:50;17.30;99.90
7472;DHT22;3777;48.722;8.110;2023-08-31T06:42:17;17.50;99.90
7472;DHT22;3777;48.722;8.110;2023-08-31T06:44:44;17.70;99.90
7472;DHT22;3777;48.722;8.110;2023-08-31T06:47:11;17.80;99.90
7472;DHT22;3777;48.722;8.110;2023-08-31T06:49:39;17.90;99.90
7472;DHT22;3777;48.722;8.110;2023-08-31T06:52:06;18.10;99.90
7472;DHT22;3777;48.722;8.110;2023-08-31T06:54:35;18.20;99.90
7472;DHT22;3777;48.722;8.110;2023-08-31T06:57:02;18.30;99.90
7472;DHT22;3777;48.722;8.110;2023-08-31T06:59:29;18.40;99.90
7472;DHT22;3777;48.722;8.110;2023-08-31T07:01:56;18.50;99.90
7472;DHT22;3777;48.722;8.110;2023-08-31T07:04:23;18.70;99.90
7472;DHT22;3777;48.722;8.110;2023-08-31T07:06:50;18.90;99.90
7472;DHT22;3777;48.722;8.110;2023-08-31T07:09:17;19.00;99.90
7472;DHT22;3777;48.722;8.110;2023-08-31T07:11:45;19.00;99.90
7472;DHT22;3777;48.722;8.110;2023-08-31T07:14:12;19.10;99.90
7472;DHT22;3777;48.722;8.110;2023-08-31T07:16:39;19.00;99.90
7472;DHT22;3777;48.722;8.110;2023-08-31T07:19:06;19.00;99.90
7472;DHT22;3777;48.722;8.110;2023-08-31T07:21:33;19.00;99.90
7472;DHT22;3777;48.722;8.110;2023-08-31T07:24:00;19.10;99.90
7472;DHT22;3777;48.722;8.110;2023-08-31T07:26:27;19.30;99.90
7472;DHT22;3777;48.722;8.110;2023-08-31T07:28:56;19.40;99.90
7472;DHT22;3777;48.722;8.110;2023-08-31T07:31:23;19.40;99.90
7472;DHT22;3777;48.722;8.110;2023-08-31T07:33:50;19.40;99.90
7472;DHT22;3777;48.722;8.110;2023-08-31T07:36:17;19.60;99.90
7472;DHT22;3777;48.722;8.110;2023-08-31T07:38:44;19.80;99.90
7472;DHT22;3777;48.722;8.110;2023-08-31T07:41:11;20.00;99.90
7472;DHT22;3777;48.722;8.110;2023-08-31T07:43:38;20.00;99.90
7472;DHT22;3777;48.722;8.110;2023-08-31T07:46:06;20.10;99.90
7472;DHT22;3777;48.722;8.110;2023-08-31T07:48:33;20.20;99.90
7472;DHT22;3777;48.722;8.110;2023-08-31T07:51:00;20.20;99.90
7472;DHT22;3777;48.722;8.110;2023-08-31T07:53:28;20.50;99.90
7472;DHT22;3777;48.722;8.110;2023-08-31T07:55:56;20.80;99.90
7472;DHT22;3777;48.722;8.110;2023-08-31T07:58:23;21.00;99.90
7472;DHT22;3777;48.722;8.110;2023-08-31T08:00:52;21.10;99.90
7472;DHT22;3777;48.722;8.110;2023-08-31T08:03:21;21.20;99.90
7472;DHT22;3777;48.722;8.110;2023-08-31T08:05:48;21.30;99.90
7472;DHT22;3777;48.722;8.110;2023-08-31T08:08:15;21.40;99.90
7472;DHT22;3777;48.722;8.110;2023-08-31T08:10:42;21.60;99.90
7472;DHT22;3777;48.722;8.110;2023-08-31T08:13:10;21.60;99.90
7472;DHT22;3777;48.722;8.110;2023-08-31T08:15:38;21.60;99.90
7472;DHT22;3777;48.722;8.110;2023-08-31T08:18:05;21.30;99.90
7472;DHT22;3777;48.722;8.110;2023-08-31T08:20:33;21.40;99.90
7472;DHT22;3777;48.722;8.110;2023-08-31T08:23:00;21.60;99.90
7472;DHT22;3777;48.722;8.110;2023-08-31T08:25:28;21.80;99.90
7472;DHT22;3777;48.722;8.110;2023-08-31T08:27:55;22.00;99.90
7472;DHT22;3777;48.722;8.110;2023-08-31T08:30:22;22.10;99.90
7472;DHT22;3777;48.722;8.110;2023-08-31T08:32:48;22.30;99.90
7472;DHT22;3777;48.722;8.110;2023-08-31T08:35:15;22.50;99.90
7472;DHT22;3777;48.722;8.110;2023-08-31T08:37:44;22.50;99.90
7472;DHT22;3777;48.722;8.110;2023-08-31T08:40:11;22.50;99.90
7472;DHT22;3777;48.722;8.110;2023-08-31T08:42:40;22.70;99.90
7472;DHT22;3777;48.722;8.110;2023-08-31T08:45:10;22.80;99.90
7472;DHT22;3777;48.722;8.110;2023-08-31T08:47:41;23.00;99.90
7472;DHT22;3777;48.722;8.110;2023-08-31T08:50:09;23.10;99.90
7472;DHT22;3777;48.722;8.110;2023-08-31T08:52:36;23.30;99.90
7472;DHT22;3777;48.722;8.110;2023-08-31T08:55:06;23.60;99.90
7472;DHT22;3777;48.722;8.110;2023-08-31T08:57:34;23.90;99.90
7472;DHT22;3777;48.722;8.110;2023-08-31T09:00:01;24.10;99.90
7472;DHT22;3777;48.722;8.110;2023-08-31T09:02:29;24.40;99.90
7472;DHT22;3777;48.722;8.110;2023-08-31T09:04:56;24.80;99.90
7472;DHT22;3777;48.722;8.110;2023-08-31T09:07:23;25.00;99.90
7472;DHT22;3777;48.722;8.110;2023-08-31T09:09:51;25.00;99.90
7472;DHT22;3777;48.722;8.110;2023-08-31T09:12:22;24.50;99.90
7472;DHT22;3777;48.722;8.110;2023-08-31T09:14:59;24.90;99.90
7472;DHT22;3777;48.722;8.110;2023-08-31T09:17:28;25.30;99.90
7472;DHT22;3777;48.722;8.110;2023-08-31T09:20:04;25.80;99.90
7472;DHT22;3777;48.722;8.110;2023-08-31T09:22:33;25.60;99.90
7472;DHT22;3777;48.722;8.110;2023-08-31T09:25:00;26.40;99.90
7472;DHT22;3777;48.722;8.110;2023-08-31T09:27:29;27.60;99.90
7472;DHT22;3777;48.722;8.110;2023-08-31T09:29:58;28.60;99.90
7472;DHT22;3777;48.722;8.110;2023-08-31T09:32:25;29.60;99.90
7472;DHT22;3777;48.722;8.110;2023-08-31T09:34:52;30.90;98.10
7472;DHT22;3777;48.722;8.110;2023-08-31T09:37:19;31.80;93.40
7472;DHT22;3777;48.722;8.110;2023-08-31T09:39:47;32.30;86.00
7472;DHT22;3777;48.722;8.110;2023-08-31T09:42:14;31.70;85.40
7472;DHT22;3777;48.722;8.110;2023-08-31T09:44:44;31.70;83.30
7472;DHT22;3777;48.722;8.110;2023-08-31T09:47:13;30.70;79.90
7472;DHT22;3777;48.722;8.110;2023-08-31T09:49:41;29.50;77.30
7472;DHT22;3777;48.722;8.110;2023-08-31T09:52:10;29.70;83.30
7472;DHT22;3777;48.722;8.110;2023-08-31T09:54:39;29.50;80.70
7472;DHT22;3777;48.722;8.110;2023-08-31T09:57:06;29.50;79.50
7472;DHT22;3777;48.722;8.110;2023-08-31T09:59:33;28.90;80.40
7472;DHT22;3777;48.722;8.110;2023-08-31T10:02:03;28.40;79.80
7472;DHT22;3777;48.722;8.110;2023-08-31T10:04:30;27.80;83.30
7472;DHT22;3777;48.722;8.110;2023-08-31T10:06:59;27.60;88.70
7472;DHT22;3777;48.722;8.110;2023-08-31T10:09:26;27.30;90.60
7472;DHT22;3777;48.722;8.110;2023-08-31T10:11:55;27.00;91.70
7472;DHT22;3777;48.722;8.110;2023-08-31T10:14:22;26.40;87.50
7472;DHT22;3777;48.722;8.110;2023-08-31T10:16:50;26.00;86.70
7472;DHT22;3777;48.722;8.110;2023-08-31T10:19:20;25.70;90.00
7472;DHT22;3777;48.722;8.110;2023-08-31T10:21:47;25.40;91.70
7472;DHT22;3777;48.722;8.110;2023-08-31T10:24:14;25.10;94.30
7472;DHT22;3777;48.722;8.110;2023-08-31T10:26:41;24.70;95.40
7472;DHT22;3777;48.722;8.110;2023-08-31T10:29:26;24.30;97.40
7472;DHT22;3777;48.722;8.110;2023-08-31T10:31:54;23.90;98.10
7472;DHT22;3777;48.722;8.110;2023-08-31T10:34:35;23.40;98.30
7472;DHT22;3777;48.722;8.110;2023-08-31T10:37:19;23.10;99.90
7472;DHT22;3777;48.722;8.110;2023-08-31T10:39:47;22.90;99.90
7472;DHT22;3777;48.722;8.110;2023-08-31T10:42:14;22.60;99.90
7472;DHT22;3777;48.722;8.110;2023-08-31T10:44:42;22.40;99.90
7472;DHT22;3777;48.722;8.110;2023-08-31T10:47:09;22.30;99.90
7472;DHT22;3777;48.722;8.110;2023-08-31T10:49:50;22.90;99.90
7472;DHT22;3777;48.722;8.110;2023-08-31T10:52:19;25.40;99.90
7472;DHT22;3777;48.722;8.110;2023-08-31T10:54:47;27.70;99.90
7472;DHT22;3777;48.722;8.110;2023-08-31T10:57:14;28.30;99.30
7472;DHT22;3777;48.722;8.110;2023-08-31T10:59:47;27.80;96.30
7472;DHT22;3777;48.722;8.110;2023-08-31T11:02:33;27.60;97.20
7472;DHT22;3777;48.722;8.110;2023-08-31T11:05:06;27.10;95.60
7472;DHT22;3777;48.722;8.110;2023-08-31T11:07:33;26.70;96.10
7472;DHT22;3777;48.722;8.110;2023-08-31T11:10:22;26.20;95.60
7472;DHT22;3777;48.722;8.110;2023-08-31T11:12:51;25.50;95.70
7472;DHT22;3777;48.722;8.110;2023-08-31T11:15:20;25.10;96.00
7472;DHT22;3777;48.722;8.110;2023-08-31T11:17:49;24.80;96.80
7472;DHT22;3777;48.722;8.110;2023-08-31T11:20:20;24.40;99.10
7472;DHT22;3777;48.722;8.110;2023-08-31T11:22:48;24.00;99.30
7472;DHT22;3777;48.722;8.110;2023-08-31T11:25:16;23.70;98.90
7472;DHT22;3777;48.722;8.110;2023-08-31T11:27:53;23.50;99.10
7472;DHT22;3777;48.722;8.110;2023-08-31T11:30:20;23.30;99.90
7472;DHT22;3777;48.722;8.110;2023-08-31T11:32:49;23.20;99.50
7472;DHT22;3777;48.722;8.110;2023-08-31T11:35:19;23.20;99.90
7472;DHT22;3777;48.722;8.110;2023-08-31T11:37:50;23.30;99.90
7472;DHT22;3777;48.722;8.110;2023-08-31T11:40:17;23.60;99.90
7472;DHT22;3777;48.722;8.110;2023-08-31T11:42:44;23.90;99.90
7472;DHT22;3777;48.722;8.110;2023-08-31T11:45:12;24.10;99.90
7472;DHT22;3777;48.722;8.110;2023-08-31T11:47:40;24.20;99.90
7472;DHT22;3777;48.722;8.110;2023-08-31T11:50:08;24.20;99.90
7472;DHT22;3777;48.722;8.110;2023-08-31T11:52:38;24.30;99.90
7472;DHT22;3777;48.722;8.110;2023-08-31T11:55:10;24.30;99.60
7472;DHT22;3777;48.722;8.110;2023-08-31T11:57:37;24.40;99.80
7472;DHT22;3777;48.722;8.110;2023-08-31T12:00:05;24.30;99.90
7472;DHT22;3777;48.722;8.110;2023-08-31T12:02:35;24.30;99.10
7472;DHT22;3777;48.722;8.110;2023-08-31T12:05:02;24.30;98.90
7472;DHT22;3777;48.722;8.110;2023-08-31T12:07:31;24.20;98.10
7472;DHT22;3777;48.722;8.110;2023-08-31T12:10:04;24.10;99.40
7472;DHT22;3777;48.722;8.110;2023-08-31T12:12:31;24.10;99.90
7472;DHT22;3777;48.722;8.110;2023-08-31T12:15:01;24.20;99.90
7472;DHT22;3777;48.722;8.110;2023-08-31T12:17:29;24.20;99.90
7472;DHT22;3777;48.722;8.110;2023-08-31T12:20:02;24.10;99.90
7472;DHT22;3777;48.722;8.110;2023-08-31T12:22:31;24.10;99.90
7472;DHT22;3777;48.722;8.110;2023-08-31T12:24:58;24.30;99.90
7472;DHT22;3777;48.722;8.110;2023-08-31T12:27:26;24.40;99.90
7472;DHT22;3777;48.722;8.110;2023-08-31T12:29:55;24.40;99.70
7472;DHT22;3777;48.722;8.110;2023-08-31T12:32:23;24.40;99.90
7472;DHT22;3777;48.722;8.110;2023-08-31T12:34:50;24.20;99.90
7472;DHT22;3777;48.722;8.110;2023-08-31T12:37:17;24.00;99.90
7472;DHT22;3777;48.722;8.110;2023-08-31T12:39:44;23.90;99.90
7472;DHT22;3777;48.722;8.110;2023-08-31T12:42:11;23.70;99.90
7472;DHT22;3777;48.722;8.110;2023-08-31T12:44:39;23.60;99.90
7472;DHT22;3777;48.722;8.110;2023-08-31T12:47:06;23.40;99.90
7472;DHT22;3777;48.722;8.110;2023-08-31T12:49:33;23.20;99.90
7472;DHT22;3777;48.722;8.110;2023-08-31T12:52:00;23.10;99.90
7472;DHT22;3777;48.722;8.110;2023-08-31T12:54:28;23.00;99.90
7472;DHT22;3777;48.722;8.110;2023-08-31T12:56:55;22.90;99.90
7472;DHT22;3777;48.722;8.110;2023-08-31T12:59:22;22.70;99.90
7472;DHT22;3777;48.722;8.110;2023-08-31T13:01:51;22.60;99.90
7472;DHT22;3777;48.722;8.110;2023-08-31T13:04:19;22.50;99.90
7472;DHT22;3777;48.722;8.110;2023-08-31T13:06:46;22.50;99.90
7472;DHT22;3777;48.722;8.110;2023-08-31T13:09:13;22.50;99.90
7472;DHT22;3777;48.722;8.110;2023-08-31T13:11:41;22.50;99.90
7472;DHT22;3777;48.722;8.110;2023-08-31T13:14:08;22.50;99.90
7472;DHT22;3777;48.722;8.110;2023-08-31T13:16:35;22.40;99.90
7472;DHT22;3777;48.722;8.110;2023-08-31T13:19:06;22.20;99.90
7472;DHT22;3777;48.722;8.110;2023-08-31T13:21:33;22.10;99.90
7472;DHT22;3777;48.722;8.110;2023-08-31T13:24:00;22.00;99.90
7472;DHT22;3777;48.722;8.110;2023-08-31T13:26:27;22.00;99.90
7472;DHT22;3777;48.722;8.110;2023-08-31T13:28:54;22.00;99.90
7472;DHT22;3777;48.722;8.110;2023-08-31T13:31:21;22.10;99.90
7472;DHT22;3777;48.722;8.110;2023-08-31T13:33:48;22.30;99.90
7472;DHT22;3777;48.722;8.110;2023-08-31T13:36:16;22.60;99.90
7472;DHT22;3777;48.722;8.110;2023-08-31T13:38:43;22.80;99.90
7472;DHT22;3777;48.722;8.110;2023-08-31T13:41:10;23.00;99.90
7472;DHT22;3777;48.722;8.110;2023-08-31T13:43:37;23.20;99.90
7472;DHT22;3777;48.722;8.110;2023-08-31T13:46:04;23.50;99.90
7472;DHT22;3777;48.722;8.110;2023-08-31T13:48:31;23.70;99.90
7472;DHT22;3777;48.722;8.110;2023-08-31T13:50:58;23.90;99.90
7472;DHT22;3777;48.722;8.110;2023-08-31T13:53:26;24.00;99.90
7472;DHT22;3777;48.722;8.110;2023-08-31T13:55:53;24.00;99.90
7472;DHT22;3777;48.722;8.110;2023-08-31T13:58:20;24.00;99.90
7472;DHT22;3777;48.722;8.110;2023-08-31T14:00:47;23.80;99.90
7472;DHT22;3777;48.722;8.110;2023-08-31T14:03:14;23.80;99.90
7472;DHT22;3777;48.722;8.110;2023-08-31T14:05:42;23.80;99.90
7472;DHT22;3777;48.722;8.110;2023-08-31T14:08:13;23.80;99.90
7472;DHT22;3777;48.722;8.110;2023-08-31T14:10:42;23.70;99.90
7472;DHT22;3777;48.722;8.110;2023-08-31T14:13:09;23.50;99.90
7472;DHT22;3777;48.722;8.110;2023-08-31T14:15:36;23.50;99.90
7472;DHT22;3777;48.722;8.110;2023-08-31T14:18:09;23.50;99.90
7472;DHT22;3777;48.722;8.110;2023-08-31T14:20:36;23.30;99.90
7472;DHT22;3777;48.722;8.110;2023-08-31T14:23:04;23.20;99.90
7472;DHT22;3777;48.722;8.110;2023-08-31T14:25:34;23.20;99.90
7472;DHT22;3777;48.722;8.110;2023-08-31T14:28:03;23.40;99.90
7472;DHT22;3777;48.722;8.110;2023-08-31T14:30:30;23.40;99.90
7472;DHT22;3777;48.722;8.110;2023-08-31T14:32:57;23.40;99.90
7472;DHT22;3777;48.722;8.110;2023-08-31T14:35:24;23.40;99.90
7472;DHT22;3777;48.722;8.110;2023-08-31T14:37:51;23.30;99.90
7472;DHT22;3777;48.722;8.110;2023-08-31T14:40:18;23.20;99.90
7472;DHT22;3777;48.722;8.110;2023-08-31T14:42:45;23.20;99.90
7472;DHT22;3777;48.722;8.110;2023-08-31T14:45:14;23.00;99.90
7472;DHT22;3777;48.722;8.110;2023-08-31T14:47:41;23.00;99.90
7472;DHT22;3777;48.722;8.110;2023-08-31T14:50:08;23.00;99.90
7472;DHT22;3777;48.722;8.110;2023-08-31T14:52:35;22.80;99.90
7472;DHT22;3777;48.722;8.110;2023-08-31T14:55:03;22.70;99.90
7472;DHT22;3777;48.722;8.110;2023-08-31T14:57:30;22.80;99.90
7472;DHT22;3777;48.722;8.110;2023-08-31T14:59:57;22.90;99.90
7472;DHT22;3777;48.722;8.110;2023-08-31T15:02:27;23.00;99.90
7472;DHT22;3777;48.722;8.110;2023-08-31T15:04:54;23.10;99.90
7472;DHT22;3777;48.722;8.110;2023-08-31T15:07:21;23.10;99.90
7472;DHT22;3777;48.722;8.110;2023-08-31T15:09:48;23.10;99.90
7472;DHT22;3777;48.722;8.110;2023-08-31T15:12:15;23.10;99.90
7472;DHT22;3777;48.722;8.110;2023-08-31T15:14:42;23.30;99.90
7472;DHT22;3777;48.722;8.110;2023-08-31T15:17:09;23.40;99.90
7472;DHT22;3777;48.722;8.110;2023-08-31T15:19:38;23.40;99.90
7472;DHT22;3777;48.722;8.110;2023-08-31T15:22:05;23.40;99.90
7472;DHT22;3777;48.722;8.110;2023-08-31T15:24:31;23.50;99.90
7472;DHT22;3777;48.722;8.110;2023-08-31T15:26:58;23.50;99.90
7472;DHT22;3777;48.722;8.110;2023-08-31T15:29:25;23.60;99.90
7472;DHT22;3777;48.722;8.110;2023-08-31T15:31:54;23.50;99.90
7472;DHT22;3777;48.722;8.110;2023-08-31T15:34:21;23.40;99.90
7472;DHT22;3777;48.722;8.110;2023-08-31T15:36:49;23.40;99.90
7472;DHT22;3777;48.722;8.110;2023-08-31T15:39:16;23.20;99.90
7472;DHT22;3777;48.722;8.110;2023-08-31T15:41:43;23.10;99.90
7472;DHT22;3777;48.722;8.110;2023-08-31T15:44:10;22.90;99.90
7472;DHT22;3777;48.722;8.110;2023-08-31T15:46:38;22.80;99.90
7472;DHT22;3777;48.722;8.110;2023-08-31T15:49:04;22.70;99.90
7472;DHT22;3777;48.722;8.110;2023-08-31T15:51:31;22.60;99.90
7472;DHT22;3777;48.722;8.110;2023-08-31T15:54:00;22.40;99.90
7472;DHT22;3777;48.722;8.110;2023-08-31T15:56:30;22.30;99.90
7472;DHT22;3777;48.722;8.110;2023-08-31T15:58:58;22.20;99.90
7472;DHT22;3777;48.722;8.110;2023-08-31T16:01:25;22.20;99.90
7472;DHT22;3777;48.722;8.110;2023-08-31T16:03:52;22.10;99.90
7472;DHT22;3777;48.722;8.110;2023-08-31T16:06:19;22.10;99.90
7472;DHT22;3777;48.722;8.110;2023-08-31T16:08:46;22.00;99.90
7472;DHT22;3777;48.722;8.110;2023-08-31T16:11:14;21.90;99.90